Albion, Washington
Current Conditions -  °F | °C
As of 3:02 PM on Thursday 23 Oct 2014 (Local Time) from KPUW Reporting Station
Moderate Rain Moderate Rain  
Wind Chill: 11°   Ceiling: 3200
Heat Index: 11°   Visibility: 3mi
Dew Point:   Wind: 9mph
Humidity: 89%   Direction: 240°WSW
Pressure: 29.88"   Gusts: 23mph
Location:  46.79°N, 117.25°W
Report Text: KPUW 232202Z AUTO 24008G20KT 3SM RA BR FEW009 BKN032 OVC047 11/09 A2988 RMK AO2 P0002 T01060089
Loading
Personal Weather Stations






























Interactive Weather Map
Tropical Storm Tracking
New forecast layout! Learn more

10-Day Weather Forecast

Advertisements
Track Severe Weather on mobile